sensor_id;sensor_type;location;lat;lon;timestamp;pressure;altitude;pressure_sealevel;temperature;humidity
32733;BME280;11867;51.198;11.966;2023-10-31T00:02:50;98489.50;;;13.69;100.00
32733;BME280;11867;51.198;11.966;2023-10-31T00:08:13;98481.09;;;14.18;100.00
32733;BME280;11867;51.198;11.966;2023-10-31T00:13:37;98491.06;;;14.10;100.00
32733;BME280;11867;51.198;11.966;2023-10-31T00:19:02;98489.78;;;14.36;100.00
32733;BME280;11867;51.198;11.966;2023-10-31T00:24:25;98495.94;;;14.17;100.00
32733;BME280;11867;51.198;11.966;2023-10-31T00:29:49;98492.53;;;13.80;100.00
32733;BME280;11867;51.198;11.966;2023-10-31T00:35:21;98493.50;;;14.00;100.00
32733;BME280;11867;51.198;11.966;2023-10-31T00:40:45;98488.09;;;13.75;100.00
32733;BME280;11867;51.198;11.966;2023-10-31T00:46:08;98485.50;;;13.66;100.00
32733;BME280;11867;51.198;11.966;2023-10-31T00:51:33;98488.75;;;13.44;100.00
32733;BME280;11867;51.198;11.966;2023-10-31T00:56:56;98482.25;;;13.36;100.00
32733;BME280;11867;51.198;11.966;2023-10-31T01:02:20;98476.22;;;13.30;100.00
32733;BME280;11867;51.198;11.966;2023-10-31T01:07:44;98468.50;;;13.73;100.00
32733;BME280;11867;51.198;11.966;2023-10-31T01:13:08;98471.63;;;13.22;100.00
32733;BME280;11867;51.198;11.966;2023-10-31T01:18:31;98462.97;;;12.83;100.00
32733;BME280;11867;51.198;11.966;2023-10-31T01:23:55;98471.31;;;13.11;100.00
32733;BME280;11867;51.198;11.966;2023-10-31T01:29:18;98454.34;;;13.71;100.00
32733;BME280;11867;51.198;11.966;2023-10-31T01:34:42;98463.59;;;13.66;100.00
32733;BME280;11867;51.198;11.966;2023-10-31T01:40:07;98457.53;;;13.73;100.00
32733;BME280;11867;51.198;11.966;2023-10-31T01:45:31;98445.47;;;14.18;100.00
32733;BME280;11867;51.198;11.966;2023-10-31T01:50:55;98445.31;;;13.99;100.00
32733;BME280;11867;51.198;11.966;2023-10-31T01:56:21;98447.91;;;14.07;100.00
32733;BME280;11867;51.198;11.966;2023-10-31T02:01:44;98458.22;;;13.98;100.00
32733;BME280;11867;51.198;11.966;2023-10-31T02:07:08;98448.22;;;14.34;100.00
32733;BME280;11867;51.198;11.966;2023-10-31T02:12:33;98449.44;;;14.21;100.00
32733;BME280;11867;51.198;11.966;2023-10-31T02:17:59;98454.16;;;13.92;100.00
32733;BME280;11867;51.198;11.966;2023-10-31T02:23:32;98446.84;;;13.56;100.00
32733;BME280;11867;51.198;11.966;2023-10-31T02:28:59;98447.25;;;13.70;100.00
32733;BME280;11867;51.198;11.966;2023-10-31T02:34:22;98441.47;;;13.59;100.00
32733;BME280;11867;51.198;11.966;2023-10-31T02:39:49;98438.59;;;13.96;100.00
32733;BME280;11867;51.198;11.966;2023-10-31T02:45:12;98434.72;;;13.69;100.00
32733;BME280;11867;51.198;11.966;2023-10-31T02:50:36;98415.00;;;13.63;100.00
32733;BME280;11867;51.198;11.966;2023-10-31T02:56:00;98409.91;;;13.78;100.00
32733;BME280;11867;51.198;11.966;2023-10-31T03:01:28;98411.50;;;13.79;100.00
32733;BME280;11867;51.198;11.966;2023-10-31T03:06:51;98432.34;;;13.96;100.00
32733;BME280;11867;51.198;11.966;2023-10-31T03:12:16;98433.94;;;13.68;100.00
32733;BME280;11867;51.198;11.966;2023-10-31T03:17:39;98434.28;;;13.67;100.00
32733;BME280;11867;51.198;11.966;2023-10-31T03:23:05;98441.78;;;13.42;100.00
32733;BME280;11867;51.198;11.966;2023-10-31T03:28:32;98433.31;;;14.03;100.00
32733;BME280;11867;51.198;11.966;2023-10-31T03:33:55;98452.34;;;14.12;100.00
32733;BME280;11867;51.198;11.966;2023-10-31T03:39:18;98460.19;;;13.98;100.00
32733;BME280;11867;51.198;11.966;2023-10-31T03:44:43;98449.94;;;14.10;100.00
32733;BME280;11867;51.198;11.966;2023-10-31T03:50:08;98459.06;;;13.86;100.00
32733;BME280;11867;51.198;11.966;2023-10-31T03:55:31;98466.06;;;14.12;100.00
32733;BME280;11867;51.198;11.966;2023-10-31T04:00:56;98462.41;;;13.39;100.00
32733;BME280;11867;51.198;11.966;2023-10-31T04:06:19;98465.53;;;13.66;100.00
32733;BME280;11867;51.198;11.966;2023-10-31T04:11:42;98468.91;;;13.35;100.00
32733;BME280;11867;51.198;11.966;2023-10-31T04:17:06;98481.00;;;13.46;100.00
32733;BME280;11867;51.198;11.966;2023-10-31T04:22:30;98484.03;;;13.69;100.00
32733;BME280;11867;51.198;11.966;2023-10-31T04:27:53;98469.75;;;13.63;100.00
32733;BME280;11867;51.198;11.966;2023-10-31T04:33:17;98480.16;;;13.58;100.00
32733;BME280;11867;51.198;11.966;2023-10-31T04:38:40;98485.56;;;13.17;100.00
32733;BME280;11867;51.198;11.966;2023-10-31T04:44:04;98488.19;;;13.38;100.00
32733;BME280;11867;51.198;11.966;2023-10-31T04:49:29;98501.63;;;13.31;100.00
32733;BME280;11867;51.198;11.966;2023-10-31T04:54:52;98495.47;;;12.97;100.00
32733;BME280;11867;51.198;11.966;2023-10-31T05:00:16;98504.81;;;12.84;100.00
32733;BME280;11867;51.198;11.966;2023-10-31T05:05:41;98506.84;;;12.75;100.00
32733;BME280;11867;51.198;11.966;2023-10-31T05:11:04;98511.22;;;12.88;100.00
32733;BME280;11867;51.198;11.966;2023-10-31T05:16:27;98491.56;;;12.61;100.00
32733;BME280;11867;51.198;11.966;2023-10-31T05:21:52;98506.66;;;12.80;100.00
32733;BME280;11867;51.198;11.966;2023-10-31T05:27:15;98520.63;;;12.66;100.00
32733;BME280;11867;51.198;11.966;2023-10-31T05:32:38;98534.16;;;12.62;100.00
32733;BME280;11867;51.198;11.966;2023-10-31T05:38:02;98542.56;;;12.45;100.00
32733;BME280;11867;51.198;11.966;2023-10-31T05:43:29;98549.38;;;12.39;100.00
32733;BME280;11867;51.198;11.966;2023-10-31T05:48:52;98549.66;;;12.58;100.00
32733;BME280;11867;51.198;11.966;2023-10-31T05:54:16;98560.69;;;12.49;100.00
32733;BME280;11867;51.198;11.966;2023-10-31T05:59:39;98576.66;;;12.26;100.00
32733;BME280;11867;51.198;11.966;2023-10-31T06:05:03;98599.84;;;12.20;100.00
32733;BME280;11867;51.198;11.966;2023-10-31T06:10:27;98611.56;;;12.21;100.00
32733;BME280;11867;51.198;11.966;2023-10-31T06:15:53;98596.78;;;12.22;100.00
32733;BME280;11867;51.198;11.966;2023-10-31T06:21:22;98617.56;;;12.35;100.00
32733;BME280;11867;51.198;11.966;2023-10-31T06:26:47;98627.63;;;12.43;99.54
32733;BME280;11867;51.198;11.966;2023-10-31T06:32:10;98625.16;;;12.29;99.56
32733;BME280;11867;51.198;11.966;2023-10-31T06:37:33;98637.22;;;12.28;100.00
32733;BME280;11867;51.198;11.966;2023-10-31T06:42:59;98644.28;;;12.29;100.00
32733;BME280;11867;51.198;11.966;2023-10-31T06:48:22;98656.03;;;12.51;97.75
32733;BME280;11867;51.198;11.966;2023-10-31T06:53:45;98661.41;;;12.60;96.62
32733;BME280;11867;51.198;11.966;2023-10-31T06:59:09;98671.81;;;12.24;97.70
32733;BME280;11867;51.198;11.966;2023-10-31T07:04:32;98680.34;;;12.23;96.25
32733;BME280;11867;51.198;11.966;2023-10-31T07:09:55;98686.56;;;12.32;95.71
32733;BME280;11867;51.198;11.966;2023-10-31T07:15:20;98698.34;;;12.24;96.48
32733;BME280;11867;51.198;11.966;2023-10-31T07:20:44;98681.88;;;12.11;96.29
32733;BME280;11867;51.198;11.966;2023-10-31T07:26:07;98697.75;;;12.18;94.15
32733;BME280;11867;51.198;11.966;2023-10-31T07:31:31;98715.72;;;12.19;94.18
32733;BME280;11867;51.198;11.966;2023-10-31T07:36:54;98708.53;;;12.36;93.20
32733;BME280;11867;51.198;11.966;2023-10-31T07:42:18;98722.19;;;12.15;94.49
32733;BME280;11867;51.198;11.966;2023-10-31T07:47:42;98724.28;;;12.39;93.90
32733;BME280;11867;51.198;11.966;2023-10-31T07:53:06;98734.44;;;12.08;94.23
32733;BME280;11867;51.198;11.966;2023-10-31T07:58:29;98756.78;;;12.31;93.10
32733;BME280;11867;51.198;11.966;2023-10-31T08:03:53;98760.00;;;12.34;92.90
32733;BME280;11867;51.198;11.966;2023-10-31T08:09:17;98782.16;;;12.41;93.33
32733;BME280;11867;51.198;11.966;2023-10-31T08:14:40;98758.97;;;12.47;92.09
32733;BME280;11867;51.198;11.966;2023-10-31T08:20:05;98751.22;;;12.70;90.89
32733;BME280;11867;51.198;11.966;2023-10-31T08:25:29;98748.19;;;12.71;91.56
32733;BME280;11867;51.198;11.966;2023-10-31T08:30:55;98753.34;;;12.43;92.58
32733;BME280;11867;51.198;11.966;2023-10-31T08:36:19;98771.00;;;12.76;90.67
32733;BME280;11867;51.198;11.966;2023-10-31T08:41:50;98774.72;;;12.92;91.09
32733;BME280;11867;51.198;11.966;2023-10-31T08:47:13;98787.31;;;12.63;92.64
32733;BME280;11867;51.198;11.966;2023-10-31T08:52:38;98790.69;;;12.39;92.90
32733;BME280;11867;51.198;11.966;2023-10-31T08:58:01;98808.19;;;12.68;93.29
32733;BME280;11867;51.198;11.966;2023-10-31T09:03:25;98808.03;;;12.64;96.87
32733;BME280;11867;51.198;11.966;2023-10-31T09:08:53;98789.25;;;13.05;95.01
32733;BME280;11867;51.198;11.966;2023-10-31T09:14:16;98782.88;;;12.80;93.71
32733;BME280;11867;51.198;11.966;2023-10-31T09:19:40;98777.78;;;12.90;94.57
32733;BME280;11867;51.198;11.966;2023-10-31T09:25:05;98774.03;;;12.95;91.52
32733;BME280;11867;51.198;11.966;2023-10-31T09:30:29;98804.25;;;13.41;89.18
32733;BME280;11867;51.198;11.966;2023-10-31T09:35:52;98815.22;;;13.99;88.17
32733;BME280;11867;51.198;11.966;2023-10-31T09:41:16;98813.72;;;13.89;85.28
32733;BME280;11867;51.198;11.966;2023-10-31T09:46:39;98818.28;;;13.97;83.73
32733;BME280;11867;51.198;11.966;2023-10-31T09:52:03;98819.59;;;14.12;82.51
32733;BME280;11867;51.198;11.966;2023-10-31T09:57:30;98821.41;;;14.20;83.14
32733;BME280;11867;51.198;11.966;2023-10-31T10:02:54;98839.91;;;14.11;81.83
32733;BME280;11867;51.198;11.966;2023-10-31T10:08:17;98840.53;;;13.83;83.66
32733;BME280;11867;51.198;11.966;2023-10-31T10:13:42;98845.25;;;15.90;77.19
32733;BME280;11867;51.198;11.966;2023-10-31T10:19:15;98827.13;;;16.85;71.12
32733;BME280;11867;51.198;11.966;2023-10-31T10:24:39;98828.97;;;15.41;74.84
32733;BME280;11867;51.198;11.966;2023-10-31T10:30:07;98827.53;;;15.03;77.13
32733;BME280;11867;51.198;11.966;2023-10-31T10:35:31;98848.00;;;14.93;75.26
32733;BME280;11867;51.198;11.966;2023-10-31T10:40:55;98849.66;;;14.58;77.29
32733;BME280;11867;51.198;11.966;2023-10-31T10:46:21;98854.50;;;14.03;77.71
32733;BME280;11867;51.198;11.966;2023-10-31T10:51:52;98873.47;;;14.08;77.98
32733;BME280;11867;51.198;11.966;2023-10-31T10:57:21;98874.00;;;14.01;78.35
32733;BME280;11867;51.198;11.966;2023-10-31T11:02:51;98855.28;;;14.03;78.96
32733;BME280;11867;51.198;11.966;2023-10-31T11:08:35;98868.19;;;14.03;79.96
32733;BME280;11867;51.198;11.966;2023-10-31T11:14:00;98870.50;;;14.13;79.59
32733;BME280;11867;51.198;11.966;2023-10-31T11:19:29;98886.00;;;13.97;80.40
32733;BME280;11867;51.198;11.966;2023-10-31T11:24:53;98897.97;;;13.92;81.74
32733;BME280;11867;51.198;11.966;2023-10-31T11:30:21;98893.59;;;13.79;81.44
32733;BME280;11867;51.198;11.966;2023-10-31T11:35:51;98915.41;;;13.75;81.92
32733;BME280;11867;51.198;11.966;2023-10-31T11:41:24;98909.53;;;13.64;81.81
32733;BME280;11867;51.198;11.966;2023-10-31T11:46:50;98933.44;;;13.55;83.83
32733;BME280;11867;51.198;11.966;2023-10-31T11:52:19;98944.28;;;14.06;81.24
32733;BME280;11867;51.198;11.966;2023-10-31T11:57:42;98925.16;;;17.44;71.54
32733;BME280;11867;51.198;11.966;2023-10-31T12:03:05;98942.94;;;21.01;61.15
32733;BME280;11867;51.198;11.966;2023-10-31T12:08:32;98977.59;;;19.41;64.55
32733;BME280;11867;51.198;11.966;2023-10-31T12:13:59;98976.91;;;20.90;61.01
32733;BME280;11867;51.198;11.966;2023-10-31T12:19:27;98993.66;;;21.67;57.19
32733;BME280;11867;51.198;11.966;2023-10-31T12:25:01;99003.91;;;23.51;54.65
32733;BME280;11867;51.198;11.966;2023-10-31T12:30:25;99013.81;;;22.52;54.79
32733;BME280;11867;51.198;11.966;2023-10-31T12:35:51;99021.56;;;20.82;57.76
32733;BME280;11867;51.198;11.966;2023-10-31T12:41:16;99019.44;;;21.16;59.27
32733;BME280;11867;51.198;11.966;2023-10-31T12:46:41;99023.91;;;19.78;60.79
32733;BME280;11867;51.198;11.966;2023-10-31T12:52:06;99043.91;;;16.75;68.54
32733;BME280;11867;51.198;11.966;2023-10-31T12:57:35;99037.88;;;15.85;73.28
32733;BME280;11867;51.198;11.966;2023-10-31T13:03:00;99038.94;;;15.56;75.16
32733;BME280;11867;51.198;11.966;2023-10-31T13:08:24;99034.97;;;14.92;78.03
32733;BME280;11867;51.198;11.966;2023-10-31T13:13:51;99048.69;;;15.04;78.09
32733;BME280;11867;51.198;11.966;2023-10-31T13:19:17;99061.06;;;15.10;78.26
32733;BME280;11867;51.198;11.966;2023-10-31T13:24:42;99048.94;;;15.11;76.85
32733;BME280;11867;51.198;11.966;2023-10-31T13:30:11;99043.84;;;14.64;78.75
32733;BME280;11867;51.198;11.966;2023-10-31T13:35:39;99049.31;;;16.28;71.60
32733;BME280;11867;51.198;11.966;2023-10-31T13:41:05;99039.69;;;16.94;71.35
32733;BME280;11867;51.198;11.966;2023-10-31T13:46:30;99033.56;;;15.60;74.35
32733;BME280;11867;51.198;11.966;2023-10-31T13:51:55;99039.75;;;14.83;78.92
32733;BME280;11867;51.198;11.966;2023-10-31T13:57:18;99047.41;;;14.44;80.48
32733;BME280;11867;51.198;11.966;2023-10-31T14:02:42;99051.38;;;14.67;79.44
32733;BME280;11867;51.198;11.966;2023-10-31T14:08:06;99063.59;;;14.58;79.21
32733;BME280;11867;51.198;11.966;2023-10-31T14:13:30;99077.97;;;16.99;71.96
32733;BME280;11867;51.198;11.966;2023-10-31T14:18:58;99096.50;;;17.66;67.66
32733;BME280;11867;51.198;11.966;2023-10-31T14:24:21;99111.97;;;17.54;67.37
32733;BME280;11867;51.198;11.966;2023-10-31T14:29:45;99130.91;;;16.64;70.41
32733;BME280;11867;51.198;11.966;2023-10-31T14:35:09;99148.75;;;15.77;73.92
32733;BME280;11867;51.198;11.966;2023-10-31T14:40:33;99161.69;;;15.06;76.68
32733;BME280;11867;51.198;11.966;2023-10-31T14:45:57;99180.41;;;14.92;77.79
32733;BME280;11867;51.198;11.966;2023-10-31T14:51:22;99187.41;;;13.97;81.73
32733;BME280;11867;51.198;11.966;2023-10-31T14:56:48;99193.19;;;14.04;82.40
32733;BME280;11867;51.198;11.966;2023-10-31T15:02:11;99203.16;;;14.08;81.55
32733;BME280;11867;51.198;11.966;2023-10-31T15:07:39;99207.28;;;13.93;82.02
32733;BME280;11867;51.198;11.966;2023-10-31T15:13:03;99200.84;;;13.89;82.14
32733;BME280;11867;51.198;11.966;2023-10-31T15:18:29;99217.81;;;13.36;84.46
32733;BME280;11867;51.198;11.966;2023-10-31T15:23:53;99232.94;;;13.42;83.81
32733;BME280;11867;51.198;11.966;2023-10-31T15:29:21;99236.81;;;13.23;84.84
32733;BME280;11867;51.198;11.966;2023-10-31T15:34:44;99241.16;;;13.24;84.95
32733;BME280;11867;51.198;11.966;2023-10-31T15:40:10;99239.03;;;13.47;84.32
32733;BME280;11867;51.198;11.966;2023-10-31T15:45:36;99246.34;;;13.08;86.08
32733;BME280;11867;51.198;11.966;2023-10-31T15:51:03;99246.22;;;12.96;86.29
32733;BME280;11867;51.198;11.966;2023-10-31T15:56:33;99255.81;;;13.37;85.20
32733;BME280;11867;51.198;11.966;2023-10-31T16:01:56;99266.63;;;13.34;84.82
32733;BME280;11867;51.198;11.966;2023-10-31T16:07:19;99274.81;;;13.25;84.64
32733;BME280;11867;51.198;11.966;2023-10-31T16:12:44;99288.38;;;13.30;84.90
32733;BME280;11867;51.198;11.966;2023-10-31T16:18:07;99297.81;;;13.59;83.66
32733;BME280;11867;51.198;11.966;2023-10-31T16:23:30;99315.41;;;13.40;84.10
32733;BME280;11867;51.198;11.966;2023-10-31T16:28:55;99315.41;;;12.97;86.21
32733;BME280;11867;51.198;11.966;2023-10-31T16:34:22;99323.59;;;13.05;85.59
32733;BME280;11867;51.198;11.966;2023-10-31T16:39:46;99327.94;;;13.41;84.47
32733;BME280;11867;51.198;11.966;2023-10-31T16:45:10;99332.94;;;13.39;84.91
32733;BME280;11867;51.198;11.966;2023-10-31T16:50:34;99340.19;;;13.35;84.32
32733;BME280;11867;51.198;11.966;2023-10-31T16:55:58;99346.50;;;13.36;85.41
32733;BME280;11867;51.198;11.966;2023-10-31T17:01:23;99354.72;;;13.36;85.04
32733;BME280;11867;51.198;11.966;2023-10-31T17:06:46;99373.81;;;13.27;84.46
32733;BME280;11867;51.198;11.966;2023-10-31T17:12:09;99380.94;;;13.19;84.33
32733;BME280;11867;51.198;11.966;2023-10-31T17:17:34;99384.28;;;12.90;85.94
32733;BME280;11867;51.198;11.966;2023-10-31T17:22:57;99388.47;;;12.96;86.25
32733;BME280;11867;51.198;11.966;2023-10-31T17:28:20;99390.06;;;12.80;86.50
32733;BME280;11867;51.198;11.966;2023-10-31T17:33:44;99410.03;;;12.98;85.83
32733;BME280;11867;51.198;11.966;2023-10-31T17:39:07;99419.25;;;13.10;85.26
32733;BME280;11867;51.198;11.966;2023-10-31T17:44:31;99421.00;;;13.06;85.65
32733;BME280;11867;51.198;11.966;2023-10-31T17:49:57;99419.06;;;13.16;84.94
32733;BME280;11867;51.198;11.966;2023-10-31T17:55:20;99443.34;;;12.91;85.61
32733;BME280;11867;51.198;11.966;2023-10-31T18:00:44;99456.72;;;13.01;84.85
32733;BME280;11867;51.198;11.966;2023-10-31T18:06:09;99461.31;;;12.83;86.15
32733;BME280;11867;51.198;11.966;2023-10-31T18:11:32;99462.31;;;12.87;85.42
32733;BME280;11867;51.198;11.966;2023-10-31T18:16:57;99464.63;;;13.11;85.04
32733;BME280;11867;51.198;11.966;2023-10-31T18:22:22;99455.75;;;12.97;85.51
32733;BME280;11867;51.198;11.966;2023-10-31T18:27:47;99466.16;;;12.78;86.08
32733;BME280;11867;51.198;11.966;2023-10-31T18:33:10;99476.59;;;12.76;86.49
32733;BME280;11867;51.198;11.966;2023-10-31T18:38:34;99475.97;;;12.79;86.33
32733;BME280;11867;51.198;11.966;2023-10-31T18:43:58;99483.84;;;12.80;86.95
32733;BME280;11867;51.198;11.966;2023-10-31T18:49:41;99489.31;;;12.71;87.45
32733;BME280;11867;51.198;11.966;2023-10-31T18:55:07;99489.56;;;12.61;87.67
32733;BME280;11867;51.198;11.966;2023-10-31T19:00:30;99494.72;;;12.63;87.96
32733;BME280;11867;51.198;11.966;2023-10-31T19:05:53;99494.63;;;12.77;87.34
32733;BME280;11867;51.198;11.966;2023-10-31T19:11:24;99497.94;;;12.96;85.87
32733;BME280;11867;51.198;11.966;2023-10-31T19:16:47;99498.22;;;12.86;86.41
32733;BME280;11867;51.198;11.966;2023-10-31T19:22:14;99500.44;;;12.52;87.47
32733;BME280;11867;51.198;11.966;2023-10-31T19:27:40;99510.13;;;12.27;89.16
32733;BME280;11867;51.198;11.966;2023-10-31T19:33:03;99510.84;;;12.42;88.64
32733;BME280;11867;51.198;11.966;2023-10-31T19:38:28;99520.44;;;12.93;86.59
32733;BME280;11867;51.198;11.966;2023-10-31T19:43:53;99520.53;;;12.79;87.09
32733;BME280;11867;51.198;11.966;2023-10-31T19:49:16;99534.31;;;13.05;85.79
32733;BME280;11867;51.198;11.966;2023-10-31T19:54:40;99547.41;;;13.26;84.62
32733;BME280;11867;51.198;11.966;2023-10-31T20:00:05;99545.28;;;13.14;85.43
32733;BME280;11867;51.198;11.966;2023-10-31T20:05:30;99551.97;;;13.30;84.38
32733;BME280;11867;51.198;11.966;2023-10-31T20:10:53;99548.69;;;13.20;85.73
32733;BME280;11867;51.198;11.966;2023-10-31T20:16:18;99547.22;;;12.74;86.59
32733;BME280;11867;51.198;11.966;2023-10-31T20:21:41;99549.63;;;12.21;90.23
32733;BME280;11867;51.198;11.966;2023-10-31T20:27:05;99560.19;;;12.59;86.48
32733;BME280;11867;51.198;11.966;2023-10-31T20:32:29;99562.69;;;12.47;88.38
32733;BME280;11867;51.198;11.966;2023-10-31T20:37:54;99554.78;;;11.86;90.41
32733;BME280;11867;51.198;11.966;2023-10-31T20:43:18;99553.75;;;12.10;89.39
32733;BME280;11867;51.198;11.966;2023-10-31T20:48:43;99551.69;;;11.79;90.34
32733;BME280;11867;51.198;11.966;2023-10-31T20:54:06;99566.59;;;11.73;90.83
32733;BME280;11867;51.198;11.966;2023-10-31T20:59:29;99569.09;;;11.33;93.75
32733;BME280;11867;51.198;11.966;2023-10-31T21:04:54;99567.44;;;11.46;93.15
32733;BME280;11867;51.198;11.966;2023-10-31T21:10:18;99567.84;;;11.11;94.55
32733;BME280;11867;51.198;11.966;2023-10-31T21:15:41;99558.25;;;11.56;93.20
32733;BME280;11867;51.198;11.966;2023-10-31T21:21:09;99567.28;;;11.79;91.43
32733;BME280;11867;51.198;11.966;2023-10-31T21:26:35;99572.22;;;10.52;100.00
32733;BME280;11867;51.198;11.966;2023-10-31T21:31:58;99574.94;;;10.19;100.00
32733;BME280;11867;51.198;11.966;2023-10-31T21:37:22;99581.63;;;10.46;100.00
32733;BME280;11867;51.198;11.966;2023-10-31T21:42:45;99576.28;;;10.55;100.00
32733;BME280;11867;51.198;11.966;2023-10-31T21:48:09;99576.03;;;11.11;96.44
32733;BME280;11867;51.198;11.966;2023-10-31T21:53:33;99572.56;;;10.64;99.58
32733;BME280;11867;51.198;11.966;2023-10-31T21:58:57;99566.84;;;10.80;98.53
32733;BME280;11867;51.198;11.966;2023-10-31T22:04:20;99569.78;;;11.11;96.62
32733;BME280;11867;51.198;11.966;2023-10-31T22:09:44;99569.53;;;10.33;100.00
32733;BME280;11867;51.198;11.966;2023-10-31T22:15:08;99572.16;;;9.67;100.00
32733;BME280;11867;51.198;11.966;2023-10-31T22:20:31;99576.25;;;9.65;100.00
32733;BME280;11867;51.198;11.966;2023-10-31T22:25:56;99582.69;;;9.31;100.00
32733;BME280;11867;51.198;11.966;2023-10-31T22:31:19;99586.19;;;9.75;100.00
32733;BME280;11867;51.198;11.966;2023-10-31T22:36:42;99587.88;;;8.79;100.00
32733;BME280;11867;51.198;11.966;2023-10-31T22:42:07;99583.31;;;8.75;100.00
32733;BME280;11867;51.198;11.966;2023-10-31T22:47:33;99585.63;;;9.11;100.00
32733;BME280;11867;51.198;11.966;2023-10-31T22:53:00;99576.91;;;9.57;100.00
32733;BME280;11867;51.198;11.966;2023-10-31T22:58:26;99576.97;;;10.46;100.00
32733;BME280;11867;51.198;11.966;2023-10-31T23:03:49;99590.81;;;11.10;99.68
32733;BME280;11867;51.198;11.966;2023-10-31T23:09:12;99595.66;;;10.53;100.00
32733;BME280;11867;51.198;11.966;2023-10-31T23:14:39;99596.47;;;11.28;98.63
32733;BME280;11867;51.198;11.966;2023-10-31T23:20:02;99599.06;;;11.61;94.62
32733;BME280;11867;51.198;11.966;2023-10-31T23:25:25;99598.41;;;12.28;92.06
32733;BME280;11867;51.198;11.966;2023-10-31T23:30:51;99596.28;;;12.47;92.56
32733;BME280;11867;51.198;11.966;2023-10-31T23:36:19;99607.28;;;12.34;90.97
32733;BME280;11867;51.198;11.966;2023-10-31T23:41:42;99597.81;;;11.95;95.41
32733;BME280;11867;51.198;11.966;2023-10-31T23:47:07;99589.34;;;12.19;93.08
32733;BME280;11867;51.198;11.966;2023-10-31T23:52:30;99592.09;;;11.68;96.87
32733;BME280;11867;51.198;11.966;2023-10-31T23:57:53;99588.22;;;11.69;95.74
